createdAt,value
2018-02-02T00:00:27.486Z,29.00
2018-02-02T00:01:27.404Z,28.20
2018-02-02T00:03:20.248Z,28.90
2018-02-02T00:04:20.147Z,28.20
2018-02-02T00:06:13.008Z,26.70
2018-02-02T00:07:12.901Z,27.00
2018-02-02T00:09:06.414Z,26.50
2018-02-02T00:10:06.066Z,25.70
2018-02-02T00:11:58.980Z,24.80
2018-02-02T00:12:58.809Z,25.70
2018-02-02T00:14:51.752Z,23.90
2018-02-02T00:15:51.558Z,25.20
2018-02-02T00:17:44.403Z,24.30
2018-02-02T00:18:44.334Z,23.90
2018-02-02T00:20:37.269Z,24.20
2018-02-02T00:21:37.167Z,23.30
2018-02-02T00:23:30.521Z,22.40
2018-02-02T00:24:30.426Z,22.00
2018-02-02T00:26:23.309Z,21.60
2018-02-02T00:27:23.169Z,21.70
2018-02-02T00:29:16.006Z,21.40
2018-02-02T00:30:15.913Z,20.60
2018-02-02T00:32:08.774Z,20.40
2018-02-02T00:33:08.676Z,20.50
2018-02-02T00:35:01.523Z,20.20
2018-02-02T00:36:01.423Z,19.70
2018-02-02T00:37:54.285Z,19.40
2018-02-02T00:38:54.211Z,19.40
2018-02-02T00:40:47.007Z,19.20
2018-02-02T00:41:46.913Z,18.90
2018-02-02T00:43:40.394Z,18.10
2018-02-02T00:44:40.274Z,18.40
2018-02-02T00:46:33.140Z,18.20
2018-02-02T00:47:33.069Z,17.30
2018-02-02T00:49:25.891Z,17.30
2018-02-02T00:50:25.792Z,17.60
2018-02-02T00:52:18.617Z,17.00
2018-02-02T00:53:18.526Z,17.10
2018-02-02T00:55:11.375Z,16.80
2018-02-02T00:56:11.275Z,16.00
2018-02-02T00:58:04.118Z,15.20
2018-02-02T00:59:04.033Z,15.50
2018-02-02T01:00:56.982Z,15.60
2018-02-02T01:01:56.790Z,15.40
2018-02-02T01:03:49.624Z,14.70
2018-02-02T01:04:49.534Z,14.70
2018-02-02T01:06:42.644Z,13.90
2018-02-02T01:07:42.277Z,14.60
2018-02-02T01:09:35.120Z,13.70
2018-02-02T01:10:35.024Z,13.50
2018-02-02T01:12:27.879Z,13.50
2018-02-02T01:13:27.863Z,13.20
2018-02-02T01:15:20.715Z,13.20
2018-02-02T01:16:20.621Z,13.20
2018-02-02T01:18:13.500Z,12.80
2018-02-02T01:19:13.382Z,12.90
2018-02-02T01:21:07.753Z,11.80
2018-02-02T01:22:07.672Z,11.90
2018-02-02T01:24:00.627Z,11.70
2018-02-02T01:25:00.509Z,11.80
2018-02-02T01:26:53.355Z,11.80
2018-02-02T01:27:53.278Z,11.50
2018-02-02T01:29:46.640Z,11.30
2018-02-02T01:30:46.539Z,11.10
2018-02-02T01:32:39.361Z,11.10
2018-02-02T01:33:39.282Z,11.10
2018-02-02T01:35:32.175Z,10.70
2018-02-02T01:36:32.028Z,10.80
2018-02-02T01:38:25.022Z,10.50
2018-02-02T01:39:24.881Z,10.40
2018-02-02T01:41:17.772Z,10.40
2018-02-02T01:42:17.649Z,9.90
2018-02-02T01:44:10.994Z,9.80
2018-02-02T01:45:10.894Z,9.50
2018-02-02T01:47:03.736Z,9.60
2018-02-02T01:48:03.642Z,9.80
2018-02-02T01:49:56.718Z,9.50
2018-02-02T01:50:56.508Z,9.20
2018-02-02T01:52:49.877Z,8.80
2018-02-02T01:53:49.748Z,9.30
2018-02-02T01:55:42.603Z,8.70
2018-02-02T01:56:42.499Z,8.80
2018-02-02T01:58:35.359Z,8.60
2018-02-02T01:59:35.247Z,8.40
2018-02-02T02:01:28.201Z,8.40
2018-02-02T02:02:28.100Z,8.20
2018-02-02T02:04:21.072Z,8.00
2018-02-02T02:05:20.960Z,7.50
2018-02-02T02:07:13.796Z,8.00
2018-02-02T02:08:13.758Z,8.00
2018-02-02T02:10:06.678Z,7.50
2018-02-02T02:11:06.561Z,7.70
2018-02-02T02:12:59.413Z,7.50
2018-02-02T02:13:59.300Z,7.30
2018-02-02T02:15:52.276Z,7.00
2018-02-02T02:16:52.163Z,7.00
2018-02-02T02:18:44.997Z,7.30
2018-02-02T02:19:44.902Z,7.10
2018-02-02T02:21:37.770Z,7.10
2018-02-02T02:22:37.655Z,6.80
2018-02-02T02:24:30.498Z,6.50
2018-02-02T02:25:30.414Z,6.60
2018-02-02T02:27:23.373Z,6.70
2018-02-02T02:28:23.254Z,6.70
2018-02-02T02:30:16.098Z,6.60
2018-02-02T02:31:16.008Z,6.40
2018-02-02T02:33:08.867Z,6.40
2018-02-02T02:34:08.751Z,5.80
2018-02-02T02:36:01.607Z,6.20
2018-02-02T02:37:01.521Z,6.40
2018-02-02T02:38:54.481Z,5.80
2018-02-02T02:39:54.365Z,6.40
2018-02-02T02:41:47.296Z,5.50
2018-02-02T02:42:47.223Z,5.90
2018-02-02T02:44:40.581Z,6.00
2018-02-02T02:45:40.063Z,5.90
2018-02-02T02:47:32.928Z,5.60
2018-02-02T02:48:32.818Z,5.20
2018-02-02T02:50:25.792Z,5.30
2018-02-02T02:51:25.665Z,5.60
2018-02-02T02:53:18.597Z,5.30
2018-02-02T02:54:18.511Z,5.40
2018-02-02T02:56:11.476Z,5.60
2018-02-02T02:57:11.381Z,5.40
2018-02-02T02:59:04.349Z,5.00
2018-02-02T03:00:04.237Z,5.00
2018-02-02T03:01:57.179Z,4.80
2018-02-02T03:02:57.083Z,5.00
2018-02-02T03:04:50.015Z,4.80
2018-02-02T03:05:49.920Z,4.80
2018-02-02T03:07:44.343Z,7.50
2018-02-02T03:08:44.229Z,4.70
2018-02-02T03:10:37.163Z,4.60
2018-02-02T03:11:37.080Z,4.40
2018-02-02T03:13:30.034Z,4.50
2018-02-02T03:14:29.921Z,4.40
2018-02-02T03:16:22.866Z,4.40
2018-02-02T03:17:22.777Z,4.30
2018-02-02T03:19:15.719Z,4.20
2018-02-02T03:20:15.627Z,4.40
2018-02-02T03:22:08.561Z,4.40
2018-02-02T03:23:08.479Z,4.40
2018-02-02T03:25:01.445Z,4.10
2018-02-02T03:26:01.328Z,4.40
2018-02-02T03:27:54.168Z,4.00
2018-02-02T03:28:54.075Z,4.10
2018-02-02T03:30:47.052Z,4.20
2018-02-02T03:31:46.933Z,3.80
2018-02-02T03:33:39.884Z,3.80
2018-02-02T03:34:39.784Z,3.80
2018-02-02T03:36:32.729Z,3.80
2018-02-02T03:37:32.639Z,3.90
2018-02-02T03:39:25.580Z,3.80
2018-02-02T03:40:25.486Z,3.90
2018-02-02T03:42:18.868Z,3.60
2018-02-02T03:43:18.340Z,3.60
2018-02-02T03:45:11.286Z,3.60
2018-02-02T03:46:11.178Z,3.90
2018-02-02T03:48:04.155Z,3.40
2018-02-02T03:49:04.053Z,4.40
2018-02-02T03:50:57.008Z,3.60
2018-02-02T03:51:56.892Z,3.70
2018-02-02T03:53:49.843Z,3.40
2018-02-02T03:54:49.747Z,3.70
2018-02-02T03:56:42.696Z,3.50
2018-02-02T03:57:42.595Z,3.40
2018-02-02T03:59:35.567Z,3.30
2018-02-02T04:00:35.442Z,3.10
2018-02-02T04:02:28.439Z,3.40
2018-02-02T04:03:28.366Z,3.50
2018-02-02T04:05:21.319Z,3.20
2018-02-02T04:06:21.145Z,3.30
2018-02-02T04:08:14.121Z,3.40
2018-02-02T04:09:14.001Z,3.30
2018-02-02T04:11:06.949Z,3.40
2018-02-02T04:12:06.858Z,3.50
2018-02-02T04:13:59.805Z,3.10
2018-02-02T04:14:59.697Z,3.00
2018-02-02T04:16:52.665Z,2.90
2018-02-02T04:17:52.555Z,3.10
2018-02-02T04:19:45.502Z,3.50
2018-02-02T04:20:45.425Z,3.00
2018-02-02T04:22:38.388Z,3.10
2018-02-02T04:23:38.261Z,3.00
2018-02-02T04:25:31.201Z,3.20
2018-02-02T04:26:31.121Z,2.70
2018-02-02T04:28:24.058Z,2.90
2018-02-02T04:29:23.969Z,3.30
2018-02-02T04:31:16.939Z,4.00
2018-02-02T04:32:16.810Z,2.70
2018-02-02T04:34:09.785Z,2.90
2018-02-02T04:35:09.675Z,2.80
2018-02-02T04:37:02.607Z,2.80
2018-02-02T04:38:02.517Z,3.20
2018-02-02T04:39:55.479Z,2.80
2018-02-02T04:40:55.366Z,2.50
2018-02-02T04:42:48.316Z,3.00
2018-02-02T04:43:48.231Z,2.50
2018-02-02T04:45:41.189Z,2.80
2018-02-02T04:46:41.097Z,3.00
2018-02-02T04:48:34.015Z,3.00
2018-02-02T04:49:33.942Z,3.10
2018-02-02T04:51:26.887Z,2.80
2018-02-02T04:52:26.783Z,3.10
2018-02-02T04:54:19.721Z,3.30
2018-02-02T04:55:19.637Z,2.90
2018-02-02T04:57:12.591Z,2.80
2018-02-02T04:58:12.485Z,2.60
2018-02-02T05:00:05.435Z,2.70
2018-02-02T05:01:05.328Z,3.20
2018-02-02T05:02:58.369Z,3.50
2018-02-02T05:03:58.194Z,2.70
2018-02-02T05:05:56.565Z,6.40
2018-02-02T05:06:56.065Z,11.80
2018-02-02T05:09:00.186Z,22.70
2018-02-02T05:10:00.074Z,24.30
2018-02-02T05:11:53.011Z,22.80
2018-02-02T05:12:52.928Z,23.40
2018-02-02T05:14:45.987Z,22.40
2018-02-02T05:15:45.880Z,22.70
2018-02-02T05:17:46.301Z,21.50
2018-02-02T05:18:46.200Z,21.30
2018-02-02T05:20:39.699Z,21.90
2018-02-02T05:21:39.563Z,20.60
2018-02-02T05:23:32.923Z,22.00
2018-02-02T05:24:32.824Z,21.90
2018-02-02T05:26:26.307Z,23.10
2018-02-02T05:27:26.196Z,23.00
2018-02-02T05:29:19.132Z,38.40
2018-02-02T05:30:19.054Z,49.70
2018-02-02T05:32:12.006Z,81.00
2018-02-02T05:33:11.897Z,83.50
2018-02-02T05:35:04.835Z,80.50
2018-02-02T05:36:04.759Z,77.90
2018-02-02T05:37:57.710Z,72.70
2018-02-02T05:38:57.595Z,70.10
2018-02-02T05:40:50.539Z,67.60
2018-02-02T05:41:50.444Z,65.30
2018-02-02T05:43:43.423Z,63.20
2018-02-02T05:44:43.293Z,61.70
2018-02-02T05:46:36.241Z,58.00
2018-02-02T05:47:36.149Z,56.70
2018-02-02T05:49:29.124Z,54.30
2018-02-02T05:50:29.010Z,52.60
2018-02-02T05:52:21.983Z,50.80
2018-02-02T05:53:21.856Z,48.80
2018-02-02T05:55:14.812Z,46.10
2018-02-02T05:56:14.706Z,45.60
2018-02-02T05:58:07.674Z,43.80
2018-02-02T05:59:07.570Z,43.40
2018-02-02T06:01:00.562Z,43.90
2018-02-02T06:02:00.410Z,41.10
2018-02-02T06:03:53.361Z,38.20
2018-02-02T06:04:53.265Z,37.50
2018-02-02T06:06:46.244Z,36.90
2018-02-02T06:07:46.120Z,36.70
2018-02-02T06:09:39.096Z,35.30
2018-02-02T06:10:38.974Z,34.60
2018-02-02T06:12:31.838Z,32.90
2018-02-02T06:13:31.719Z,33.40
2018-02-02T06:15:24.557Z,32.00
2018-02-02T06:16:24.469Z,30.10
2018-02-02T06:18:17.343Z,31.40
2018-02-02T06:19:17.230Z,30.40
2018-02-02T06:21:10.102Z,30.00
2018-02-02T06:22:09.978Z,29.10
2018-02-02T06:24:02.871Z,27.70
2018-02-02T06:25:02.759Z,28.10
2018-02-02T06:26:55.555Z,28.20
2018-02-02T06:27:55.472Z,27.90
2018-02-02T06:29:48.317Z,28.30
2018-02-02T06:30:48.218Z,27.30
2018-02-02T06:32:41.051Z,25.70
2018-02-02T06:33:40.973Z,25.70
2018-02-02T06:35:34.059Z,25.30
2018-02-02T06:36:33.720Z,24.90
2018-02-02T06:38:26.558Z,25.10
2018-02-02T06:39:26.468Z,24.50
2018-02-02T06:41:19.346Z,22.80
2018-02-02T06:42:19.232Z,23.00
2018-02-02T06:44:12.069Z,22.30
2018-02-02T06:45:11.981Z,21.90
2018-02-02T06:47:04.831Z,20.10
2018-02-02T06:48:04.703Z,20.70
2018-02-02T06:49:57.565Z,19.70
2018-02-02T06:50:57.460Z,19.50
2018-02-02T06:52:50.566Z,18.90
2018-02-02T06:53:50.216Z,18.90
2018-02-02T06:55:43.053Z,17.20
2018-02-02T06:56:42.962Z,16.90
2018-02-02T06:58:35.819Z,16.60
2018-02-02T06:59:35.715Z,16.50
2018-02-02T07:01:28.771Z,16.40
2018-02-02T07:02:28.667Z,16.20
2018-02-02T07:04:21.521Z,16.40
2018-02-02T07:05:21.410Z,15.30
2018-02-02T07:07:14.342Z,15.20
2018-02-02T07:08:14.185Z,14.50
2018-02-02T07:10:07.017Z,14.30
2018-02-02T07:11:06.911Z,14.10
2018-02-02T07:12:59.749Z,14.50
2018-02-02T07:13:59.673Z,13.80
2018-02-02T07:15:52.519Z,13.60
2018-02-02T07:16:52.416Z,13.30
2018-02-02T07:18:45.251Z,13.50
2018-02-02T07:19:45.163Z,13.50
2018-02-02T07:21:38.550Z,13.00
2018-02-02T07:22:38.440Z,13.20
2018-02-02T07:24:31.261Z,12.60
2018-02-02T07:25:31.180Z,12.60
2018-02-02T07:27:24.024Z,12.00
2018-02-02T07:28:23.918Z,12.20
2018-02-02T07:30:16.778Z,10.90
2018-02-02T07:31:16.680Z,11.20
2018-02-02T07:33:09.548Z,11.10
2018-02-02T07:34:09.426Z,11.50
2018-02-02T07:36:02.280Z,11.10
2018-02-02T07:37:02.177Z,10.70
2018-02-02T07:38:55.036Z,10.20
2018-02-02T07:39:54.923Z,10.20
2018-02-02T07:41:48.270Z,10.60
2018-02-02T07:42:48.203Z,10.40
2018-02-02T07:44:41.040Z,9.90
2018-02-02T07:45:40.944Z,9.20
2018-02-02T07:47:33.781Z,9.40
2018-02-02T07:48:33.685Z,9.40
2018-02-02T07:50:26.550Z,8.70
2018-02-02T07:51:26.442Z,9.20
2018-02-02T07:53:19.261Z,8.20
2018-02-02T07:54:19.182Z,9.00
2018-02-02T07:56:12.063Z,8.70
2018-02-02T07:57:11.934Z,8.70
2018-02-02T07:59:04.785Z,9.10
2018-02-02T08:00:04.687Z,8.40
2018-02-02T08:01:57.542Z,8.40
2018-02-02T08:02:57.435Z,8.60
2018-02-02T08:04:50.341Z,8.20
2018-02-02T08:05:50.205Z,7.90
2018-02-02T08:07:44.093Z,7.70
2018-02-02T08:08:43.984Z,7.30
2018-02-02T08:10:36.792Z,7.40
2018-02-02T08:11:36.706Z,7.30
2018-02-02T08:13:30.618Z,7.50
2018-02-02T08:14:30.480Z,7.40
2018-02-02T08:16:23.311Z,7.20
2018-02-02T08:17:23.233Z,7.00
2018-02-02T08:19:16.077Z,6.60
2018-02-02T08:20:15.976Z,7.00
2018-02-02T08:22:08.811Z,7.00
2018-02-02T08:23:08.719Z,6.20
2018-02-02T08:25:01.606Z,6.40
2018-02-02T08:26:01.492Z,6.40
2018-02-02T08:27:54.316Z,6.50
2018-02-02T08:28:54.226Z,6.80
2018-02-02T08:30:47.222Z,6.30
2018-02-02T08:31:47.075Z,6.20
2018-02-02T08:33:39.910Z,6.00
2018-02-02T08:34:39.818Z,6.00
2018-02-02T08:36:32.674Z,6.10
2018-02-02T08:37:32.570Z,5.80
2018-02-02T08:39:25.413Z,5.50
2018-02-02T08:40:25.322Z,5.40
2018-02-02T08:42:18.190Z,5.70
2018-02-02T08:43:18.081Z,5.50
2018-02-02T08:45:10.926Z,5.00
2018-02-02T08:46:10.821Z,5.80
2018-02-02T08:48:03.740Z,5.20
2018-02-02T08:49:03.566Z,5.00
2018-02-02T08:50:56.417Z,5.10
2018-02-02T08:51:56.333Z,5.00
2018-02-02T08:53:49.388Z,4.80
2018-02-02T08:54:49.283Z,4.70
2018-02-02T08:56:42.108Z,4.70
2018-02-02T08:57:42.058Z,4.20
2018-02-02T08:59:34.883Z,4.40
2018-02-02T09:00:34.777Z,4.70
2018-02-02T09:02:27.609Z,4.80
2018-02-02T09:03:27.524Z,4.60
2018-02-02T09:05:20.403Z,4.50
2018-02-02T09:06:20.290Z,4.20
2018-02-02T09:08:13.114Z,4.30
2018-02-02T09:09:13.040Z,4.60
2018-02-02T09:11:06.903Z,4.30
2018-02-02T09:12:06.811Z,4.00
2018-02-02T09:13:59.636Z,3.90
2018-02-02T09:14:59.551Z,4.20
2018-02-02T09:16:52.415Z,4.30
2018-02-02T09:17:52.309Z,3.70
2018-02-02T09:19:45.168Z,4.00
2018-02-02T09:20:45.048Z,4.00
2018-02-02T09:22:38.238Z,3.90
2018-02-02T09:23:37.791Z,3.70
2018-02-02T09:25:30.632Z,3.70
2018-02-02T09:26:30.554Z,3.80
2018-02-02T09:28:23.426Z,3.90
2018-02-02T09:29:23.290Z,4.10
2018-02-02T09:31:16.130Z,3.50
2018-02-02T09:32:16.050Z,3.60
2018-02-02T09:34:08.907Z,3.60
2018-02-02T09:35:08.795Z,3.70
2018-02-02T09:37:01.639Z,3.60
2018-02-02T09:38:01.553Z,3.40
2018-02-02T09:39:54.648Z,3.70
2018-02-02T09:40:54.298Z,3.50
2018-02-02T09:42:47.141Z,3.40
2018-02-02T09:43:47.044Z,3.30
2018-02-02T09:45:39.895Z,3.60
2018-02-02T09:46:39.797Z,3.30
2018-02-02T09:48:32.640Z,3.00
2018-02-02T09:49:32.552Z,3.40
2018-02-02T09:51:26.167Z,3.20
2018-02-02T09:52:25.808Z,2.90
2018-02-02T09:54:18.653Z,3.10
2018-02-02T09:55:18.560Z,3.20
2018-02-02T09:57:11.424Z,3.00
2018-02-02T09:58:11.308Z,3.10
2018-02-02T10:00:04.147Z,2.80
2018-02-02T10:01:04.057Z,2.90
2018-02-02T10:02:56.946Z,3.00
2018-02-02T10:03:56.805Z,2.90
2018-02-02T10:05:49.634Z,2.80
2018-02-02T10:06:49.559Z,2.70
2018-02-02T10:08:42.417Z,2.80
2018-02-02T10:09:42.332Z,2.70
2018-02-02T10:11:35.172Z,2.70
2018-02-02T10:12:35.057Z,2.70
2018-02-02T10:14:27.915Z,2.60
2018-02-02T10:15:27.817Z,2.70
2018-02-02T10:17:20.653Z,2.60
2018-02-02T10:18:20.573Z,2.60
2018-02-02T10:20:13.413Z,2.60
2018-02-02T10:21:13.328Z,2.60
2018-02-02T10:23:06.142Z,2.40
2018-02-02T10:24:06.068Z,2.50
2018-02-02T10:25:58.927Z,2.50
2018-02-02T10:26:58.810Z,2.60
2018-02-02T10:28:51.649Z,2.40
2018-02-02T10:29:51.566Z,2.60
2018-02-02T10:31:44.418Z,2.40
2018-02-02T10:32:44.309Z,2.30
2018-02-02T10:34:37.361Z,2.30
2018-02-02T10:35:37.251Z,2.30
2018-02-02T10:37:30.111Z,2.30
2018-02-02T10:38:30.017Z,2.30
2018-02-02T10:40:22.872Z,2.10
2018-02-02T10:41:22.757Z,2.00
2018-02-02T10:43:15.637Z,2.00
2018-02-02T10:44:15.522Z,2.40
2018-02-02T10:46:08.351Z,2.30
2018-02-02T10:47:08.255Z,2.10
2018-02-02T10:49:01.142Z,2.20
2018-02-02T10:50:01.016Z,2.20
2018-02-02T10:51:53.839Z,2.10
2018-02-02T10:52:53.764Z,1.90
2018-02-02T10:54:46.601Z,2.00
2018-02-02T10:55:46.521Z,1.90
2018-02-02T10:57:39.343Z,1.70
2018-02-02T10:58:39.259Z,1.90
2018-02-02T11:00:32.095Z,1.90
2018-02-02T11:01:32.004Z,1.90
2018-02-02T11:03:24.843Z,1.80
2018-02-02T11:04:24.753Z,1.80
2018-02-02T11:06:17.621Z,1.80
2018-02-02T11:07:17.558Z,1.80
2018-02-02T11:09:10.379Z,1.70
2018-02-02T11:10:10.253Z,1.90
2018-02-02T11:12:03.113Z,1.70
2018-02-02T11:13:03.003Z,2.10
2018-02-02T11:14:56.358Z,1.80
2018-02-02T11:15:56.287Z,1.90
2018-02-02T11:17:49.623Z,1.70
2018-02-02T11:18:49.531Z,1.70
2018-02-02T11:20:42.368Z,1.70
2018-02-02T11:21:42.271Z,1.50
2018-02-02T11:23:35.134Z,1.60
2018-02-02T11:24:35.030Z,1.70
2018-02-02T11:26:27.962Z,1.60
2018-02-02T11:27:27.872Z,1.70
2018-02-02T11:29:21.755Z,1.70
2018-02-02T11:30:21.644Z,1.50
2018-02-02T11:32:14.491Z,1.60
2018-02-02T11:33:14.398Z,1.70
2018-02-02T11:35:07.245Z,1.50
2018-02-02T11:36:07.150Z,1.70
2018-02-02T11:37:59.978Z,1.60
2018-02-02T11:38:59.891Z,1.60
2018-02-02T11:40:52.788Z,1.50
2018-02-02T11:41:52.643Z,1.60
2018-02-02T11:43:45.489Z,1.60
2018-02-02T11:44:45.406Z,1.70
2018-02-02T11:46:38.270Z,1.50
2018-02-02T11:47:38.147Z,1.60
2018-02-02T11:49:30.978Z,1.70
2018-02-02T11:50:30.986Z,1.40
2018-02-02T11:52:23.747Z,1.50
2018-02-02T11:53:23.657Z,1.40
2018-02-02T11:55:16.479Z,1.50
2018-02-02T11:56:16.401Z,1.40
2018-02-02T11:58:09.478Z,1.50
2018-02-02T11:59:09.339Z,1.70
2018-02-02T12:01:02.186Z,1.40
2018-02-02T12:02:02.099Z,1.40
2018-02-02T12:03:54.956Z,1.40
2018-02-02T12:04:54.864Z,1.50
2018-02-02T12:06:47.719Z,1.40
2018-02-02T12:07:47.602Z,1.50
2018-02-02T12:09:40.445Z,1.50
2018-02-02T12:10:40.349Z,1.50
2018-02-02T12:12:33.291Z,1.40
2018-02-02T12:13:33.195Z,1.40
2018-02-02T12:15:26.310Z,1.30
2018-02-02T12:16:25.946Z,1.30
2018-02-02T12:18:18.794Z,1.30
2018-02-02T12:19:18.734Z,1.40
2018-02-02T12:21:11.563Z,1.40
2018-02-02T12:22:11.447Z,1.20
2018-02-02T12:24:04.385Z,1.40
2018-02-02T12:25:04.300Z,1.40
2018-02-02T12:26:57.155Z,1.40
2018-02-02T12:27:57.055Z,1.40
2018-02-02T12:29:49.885Z,1.40
2018-02-02T12:30:49.796Z,1.20
2018-02-02T12:32:42.727Z,1.10
2018-02-02T12:33:42.571Z,1.50
2018-02-02T12:35:35.395Z,1.40
2018-02-02T12:36:35.304Z,1.20
2018-02-02T12:38:28.141Z,1.40
2018-02-02T12:39:28.044Z,1.40
2018-02-02T12:41:20.893Z,1.30
2018-02-02T12:42:20.825Z,1.30
2018-02-02T12:44:13.644Z,1.20
2018-02-02T12:45:13.548Z,1.10
2018-02-02T12:47:06.408Z,1.30
2018-02-02T12:48:06.293Z,1.40
2018-02-02T12:49:59.168Z,1.30
2018-02-02T12:50:59.043Z,1.30
2018-02-02T12:52:51.878Z,1.10
2018-02-02T12:53:51.821Z,1.20
2018-02-02T12:55:44.639Z,1.20
2018-02-02T12:56:44.601Z,1.10
2018-02-02T12:58:37.372Z,1.00
2018-02-02T12:59:37.302Z,1.20
2018-02-02T13:01:30.155Z,1.10
2018-02-02T13:02:30.054Z,1.30
2018-02-02T13:04:22.887Z,1.20
2018-02-02T13:05:22.792Z,1.20
2018-02-02T13:07:15.655Z,1.10
2018-02-02T13:08:15.549Z,1.10
2018-02-02T13:10:08.378Z,1.20
2018-02-02T13:11:08.288Z,1.00
2018-02-02T13:13:01.145Z,1.00
2018-02-02T13:14:01.044Z,1.10
2018-02-02T13:15:53.914Z,1.10
2018-02-02T13:16:53.830Z,1.30
2018-02-02T13:18:47.273Z,1.20
2018-02-02T13:19:47.047Z,1.10
2018-02-02T13:21:39.925Z,1.10
2018-02-02T13:22:39.808Z,1.20
2018-02-02T13:24:32.685Z,0.90
2018-02-02T13:25:32.545Z,1.00
2018-02-02T13:27:25.384Z,1.10
2018-02-02T13:28:25.305Z,1.00
2018-02-02T13:30:18.144Z,1.20
2018-02-02T13:31:18.047Z,1.00
2018-02-02T13:33:10.881Z,1.00
2018-02-02T13:34:10.797Z,1.20
2018-02-02T13:36:03.670Z,1.10
2018-02-02T13:37:03.566Z,1.00
2018-02-02T13:38:56.382Z,1.10
2018-02-02T13:39:56.304Z,1.20
2018-02-02T13:41:49.186Z,0.90
2018-02-02T13:42:49.050Z,0.80
2018-02-02T13:44:41.893Z,0.90
2018-02-02T13:45:41.797Z,0.90
2018-02-02T13:47:34.654Z,1.20
2018-02-02T13:48:34.546Z,0.90
2018-02-02T13:50:27.390Z,1.00
2018-02-02T13:51:27.296Z,0.90
2018-02-02T13:53:20.175Z,0.90
2018-02-02T13:54:20.050Z,1.30
2018-02-02T13:56:12.876Z,1.60
2018-02-02T13:57:12.794Z,1.40
2018-02-02T13:59:05.650Z,5.00
2018-02-02T14:00:05.545Z,7.00
2018-02-02T14:01:58.475Z,28.70
2018-02-02T14:02:58.363Z,39.30
2018-02-02T14:04:51.157Z,29.20
2018-02-02T14:05:51.041Z,25.60
2018-02-02T14:07:43.876Z,21.70
2018-02-02T14:08:43.789Z,22.10
2018-02-02T14:10:36.642Z,20.40
2018-02-02T14:11:36.538Z,21.10
2018-02-02T14:13:29.889Z,17.90
2018-02-02T14:14:29.796Z,18.20
2018-02-02T14:16:22.649Z,16.80
2018-02-02T14:17:22.551Z,16.40
2018-02-02T14:19:16.419Z,15.90
2018-02-02T14:20:16.332Z,16.30
2018-02-02T14:22:09.377Z,16.30
2018-02-02T14:23:09.299Z,16.50
2018-02-02T14:25:02.113Z,15.90
2018-02-02T14:26:02.020Z,16.30
2018-02-02T14:27:54.910Z,15.70
2018-02-02T14:28:54.804Z,16.30
2018-02-02T14:30:47.642Z,16.10
2018-02-02T14:31:47.522Z,15.80
2018-02-02T14:33:40.393Z,15.40
2018-02-02T14:34:40.286Z,16.20
2018-02-02T14:36:33.118Z,15.70
2018-02-02T14:37:33.029Z,16.30
2018-02-02T14:39:25.880Z,18.90
2018-02-02T14:40:25.777Z,19.40
2018-02-02T14:42:18.619Z,45.10
2018-02-02T14:43:18.527Z,42.10
2018-02-02T14:45:11.403Z,43.80
2018-02-02T14:46:11.277Z,41.00
2018-02-02T14:48:04.384Z,43.70
2018-02-02T14:49:04.239Z,39.40
2018-02-02T14:50:57.224Z,37.20
2018-02-02T14:51:57.148Z,56.50
2018-02-02T14:53:50.427Z,89.10
2018-02-02T14:54:50.339Z,88.10
2018-02-02T14:56:43.197Z,118.80
2018-02-02T14:57:43.132Z,118.00
2018-02-02T14:59:35.930Z,110.40
2018-02-02T15:00:35.845Z,110.10
2018-02-02T15:02:29.227Z,101.40
2018-02-02T15:03:29.113Z,97.50
2018-02-02T15:05:22.459Z,91.00
2018-02-02T15:06:22.380Z,88.70
2018-02-02T15:08:15.744Z,82.20
2018-02-02T15:09:15.659Z,79.80
2018-02-02T15:11:08.908Z,74.20
2018-02-02T15:12:08.799Z,71.30
2018-02-02T15:14:01.680Z,68.80
2018-02-02T15:15:01.551Z,66.60
2018-02-02T15:16:59.537Z,66.00
2018-02-02T15:17:59.438Z,62.50
2018-02-02T15:19:52.791Z,62.30
2018-02-02T15:20:52.680Z,61.90
2018-02-02T15:22:47.017Z,60.70
2018-02-02T15:23:46.464Z,59.80
2018-02-02T15:26:03.985Z,59.80
2018-02-02T15:28:16.762Z,56.20
2018-02-02T15:29:16.680Z,55.20
2018-02-02T15:31:09.646Z,54.10
2018-02-02T15:32:09.541Z,53.30
2018-02-02T15:34:02.380Z,51.30
2018-02-02T15:35:02.287Z,50.20
2018-02-02T15:36:55.145Z,49.40
2018-02-02T15:37:55.046Z,48.20
2018-02-02T15:39:47.880Z,46.40
2018-02-02T15:40:47.785Z,46.70
2018-02-02T15:42:41.176Z,44.20
2018-02-02T15:43:41.041Z,42.80
2018-02-02T15:45:33.884Z,42.30
2018-02-02T15:46:33.793Z,41.20
2018-02-02T15:48:26.657Z,40.20
2018-02-02T15:49:26.546Z,40.60
2018-02-02T15:51:19.495Z,38.60
2018-02-02T15:52:19.412Z,37.80
2018-02-02T15:54:12.269Z,36.30
2018-02-02T15:55:12.163Z,36.30
2018-02-02T15:57:04.994Z,34.60
2018-02-02T15:58:04.922Z,34.80
2018-02-02T15:59:57.765Z,34.70
2018-02-02T16:00:57.650Z,32.70
2018-02-02T16:02:50.481Z,33.00
2018-02-02T16:03:50.398Z,31.80
2018-02-02T16:05:43.267Z,31.90
2018-02-02T16:06:43.142Z,31.70
2018-02-02T16:08:36.094Z,30.90
2018-02-02T16:09:35.898Z,31.20
2018-02-02T16:11:28.842Z,29.70
2018-02-02T16:12:28.734Z,28.80
2018-02-02T16:14:21.682Z,28.00
2018-02-02T16:15:21.600Z,28.10
2018-02-02T16:17:14.469Z,26.90
2018-02-02T16:18:14.382Z,26.90
2018-02-02T16:20:07.182Z,26.10
2018-02-02T16:21:07.097Z,25.80
2018-02-02T16:22:59.961Z,25.80
2018-02-02T16:23:59.872Z,25.30
2018-02-02T16:25:52.733Z,24.40
2018-02-02T16:26:52.592Z,23.60
2018-02-02T16:28:45.460Z,22.70
2018-02-02T16:29:45.360Z,22.80
2018-02-02T16:31:38.212Z,23.80
2018-02-02T16:32:38.102Z,22.20
2018-02-02T16:34:30.976Z,21.90
2018-02-02T16:35:30.844Z,21.00
2018-02-02T16:37:23.683Z,21.80
2018-02-02T16:38:23.616Z,20.90
2018-02-02T16:40:16.460Z,20.90
2018-02-02T16:41:16.358Z,20.30
2018-02-02T16:43:09.386Z,19.30
2018-02-02T16:44:09.304Z,19.50
2018-02-02T16:46:02.158Z,18.80
2018-02-02T16:47:02.048Z,18.90
2018-02-02T16:48:54.919Z,18.30
2018-02-02T16:49:54.800Z,18.70
2018-02-02T16:51:47.661Z,18.70
2018-02-02T16:52:47.550Z,18.40
2018-02-02T16:54:40.396Z,17.70
2018-02-02T16:55:40.305Z,17.50
2018-02-02T16:57:33.316Z,16.00
2018-02-02T16:58:33.154Z,16.70
2018-02-02T17:00:26.104Z,16.00
2018-02-02T17:01:25.997Z,16.50
2018-02-02T17:03:18.959Z,15.90
2018-02-02T17:04:18.849Z,15.60
2018-02-02T17:06:11.708Z,15.30
2018-02-02T17:07:11.598Z,15.40
2018-02-02T17:09:04.462Z,14.70
2018-02-02T17:10:04.344Z,14.70
2018-02-02T17:11:57.316Z,14.70
2018-02-02T17:12:57.216Z,15.00
2018-02-02T17:14:50.168Z,14.00
2018-02-02T17:15:50.053Z,13.20
2018-02-02T17:17:43.010Z,13.20
2018-02-02T17:18:42.906Z,13.20
2018-02-02T17:20:35.762Z,12.60
2018-02-02T17:21:35.662Z,13.40
2018-02-02T17:23:28.635Z,13.00
2018-02-02T17:24:28.530Z,12.70
2018-02-02T17:26:21.482Z,12.20
2018-02-02T17:27:21.392Z,11.80
2018-02-02T17:29:14.305Z,12.40
2018-02-02T17:30:14.231Z,12.20
2018-02-02T17:32:07.183Z,11.10
2018-02-02T17:33:07.064Z,11.60
2018-02-02T17:35:00.007Z,11.10
2018-02-02T17:35:59.921Z,11.00
2018-02-02T17:37:52.877Z,10.80
2018-02-02T17:38:52.763Z,10.90
2018-02-02T17:40:45.706Z,11.10
2018-02-02T17:41:45.613Z,11.10
2018-02-02T17:43:38.466Z,10.40
2018-02-02T17:44:38.379Z,9.50
2018-02-02T17:46:31.721Z,8.90
2018-02-02T17:47:31.213Z,10.10
2018-02-02T17:49:24.176Z,16.00
2018-02-02T17:50:24.086Z,19.20
2018-02-02T17:52:16.910Z,26.00
2018-02-02T17:53:16.830Z,26.30
2018-02-02T17:55:09.790Z,28.80
2018-02-02T17:56:09.668Z,27.80
2018-02-02T17:58:02.634Z,31.20
2018-02-02T17:59:02.527Z,34.90
2018-02-02T18:00:55.490Z,43.80
2018-02-02T18:01:55.379Z,44.90
2018-02-02T18:03:48.724Z,48.10
2018-02-02T18:04:48.634Z,47.20
2018-02-02T18:06:42.015Z,47.80
2018-02-02T18:07:41.893Z,48.40
2018-02-02T18:09:34.873Z,47.30
2018-02-02T18:10:34.746Z,47.50
2018-02-02T18:12:27.769Z,48.50
2018-02-02T18:13:27.620Z,48.40
2018-02-02T18:15:20.560Z,45.80
2018-02-02T18:16:20.461Z,44.70
2018-02-02T18:18:13.415Z,43.10
2018-02-02T18:19:13.336Z,43.50
2018-02-02T18:21:06.881Z,40.90
2018-02-02T18:22:06.769Z,41.70
2018-02-02T18:23:59.739Z,40.40
2018-02-02T18:24:59.622Z,39.50
2018-02-02T18:26:52.590Z,39.70
2018-02-02T18:27:52.490Z,38.50
2018-02-02T18:29:45.479Z,36.90
2018-02-02T18:30:45.335Z,36.90
2018-02-02T18:32:38.892Z,35.10
2018-02-02T18:33:38.802Z,34.90
2018-02-02T18:35:31.866Z,34.20
2018-02-02T18:36:31.756Z,33.90
2018-02-02T18:38:24.693Z,33.50
2018-02-02T18:39:24.615Z,33.20
2018-02-02T18:41:17.583Z,31.90
2018-02-02T18:42:17.450Z,31.00
2018-02-02T18:44:10.393Z,31.50
2018-02-02T18:45:10.299Z,30.30
2018-02-02T18:47:03.383Z,29.30
2018-02-02T18:48:03.158Z,28.10
2018-02-02T18:49:56.096Z,28.60
2018-02-02T18:50:56.028Z,28.20
2018-02-02T18:52:48.991Z,28.60